Time;durP1;ratioP1;P1;durP2;ratioP2;P2;SDS_P1;SDS_P2;PMS_P1;PMS_P2;Temp;Humidity;BMP_temperature;BMP_pressure;BME280_temperature;BME280_humidity;BME280_pressure;Samples;Min_cycle;Max_cycle;Signal;HPM_P1;HPM_P2
2022/06/12 00:01:03;;;;;;;6.13;2.13;;;;;;;21.33;64.51;98866.94;5018032;28;20128;-72
2022/06/12 00:03:32;;;;;;;3.75;1.50;;;;;;;21.36;63.83;98869.97;5017377;28;20041;-72
2022/06/12 00:05:58;;;;;;;3.72;1.35;;;;;;;21.33;65.03;98875.66;5018258;28;20132;-72
2022/06/12 00:08:24;;;;;;;5.40;1.50;;;;;;;21.12;66.17;98869.63;5017559;28;20064;-72
2022/06/12 00:10:51;;;;;;;6.20;1.55;;;;;;;21.03;66.75;98868.22;5003038;28;20029;-71
2022/06/12 00:13:21;;;;;;;4.18;1.30;;;;;;;21.01;65.87;98854.41;5016629;28;20025;-71
2022/06/12 00:15:47;;;;;;;;;;;;;;;21.11;66.96;98862.69;5012618;28;20021;-71
2022/06/12 00:18:12;;;;;;;3.35;1.33;;;;;;;21.12;66.16;98879.41;5014099;28;19923;-71
2022/06/12 00:20:38;;;;;;;3.35;1.35;;;;;;;20.97;65.46;98870.88;5015057;28;20399;-71
2022/06/12 00:23:10;;;;;;;4.78;1.60;;;;;;;20.84;64.72;98837.34;4999397;28;20493;-72
2022/06/12 00:25:36;;;;;;;3.45;1.48;;;;;;;21.01;62.40;98859.69;5000446;28;20029;-70
2022/06/12 00:28:02;;;;;;;5.10;1.40;;;;;;;20.95;61.51;98867.63;5017745;28;20053;-72
2022/06/12 00:30:27;;;;;;;3.33;1.40;;;;;;;20.70;60.68;98833.91;4994702;28;20481;-71
2022/06/12 00:32:54;;;;;;;3.28;1.20;;;;;;;20.93;60.62;98868.63;5010487;28;20037;-72
2022/06/12 00:35:26;;;;;;;3.45;1.20;;;;;;;20.98;60.65;98875.94;4998539;28;20102;-73
2022/06/12 00:37:52;;;;;;;3.63;1.33;;;;;;;20.97;60.16;98876.16;4995221;28;20116;-70
2022/06/12 00:40:19;;;;;;;4.25;1.30;;;;;;;20.80;60.33;98873.94;5017198;28;20068;-71
2022/06/12 00:42:54;;;;;;;3.40;1.20;;;;;;;20.74;60.79;98875.56;5007622;28;20083;-70
2022/06/12 00:45:40;;;;;;;4.55;1.10;;;;;;;20.63;61.02;98862.16;4998752;28;20022;-71
2022/06/12 00:48:20;;;;;;;3.75;1.33;;;;;;;20.66;61.11;98877.59;5012803;28;20041;-72
2022/06/12 00:50:51;;;;;;;3.97;1.20;;;;;;;20.65;61.61;98875.97;5016312;28;20144;-71
2022/06/12 00:53:22;;;;;;;3.35;1.30;;;;;;;20.60;61.73;98879.19;4998312;28;20037;-71
2022/06/12 00:55:55;;;;;;;3.40;1.15;;;;;;;20.54;61.79;98877.38;5008811;28;20487;-74
2022/06/12 00:58:24;;;;;;;3.72;1.30;;;;;;;20.49;61.13;98887.72;5018151;28;20595;-72
2022/06/12 01:00:49;;;;;;;3.13;1.20;;;;;;;20.30;60.67;98852.38;5013214;28;20041;-72
2022/06/12 01:03:15;;;;;;;3.20;1.20;;;;;;;20.37;61.05;98850.56;5016239;28;20033;-70
2022/06/12 01:08:26;;;;;;;3.63;1.10;;;;;;;20.51;61.43;98896.25;5012860;28;20087;-71
2022/06/12 01:10:54;;;;;;;3.63;1.27;;;;;;;20.24;61.60;98877.72;5020855;28;20426;-72
2022/06/12 01:13:23;;;;;;;2.83;1.00;;;;;;;20.34;62.44;98901.94;5012611;28;20026;-71
2022/06/12 01:15:55;;;;;;;2.97;1.10;;;;;;;20.26;62.71;98906.56;5010494;28;20034;-70
2022/06/12 01:18:24;;;;;;;3.55;1.25;;;;;;;20.08;63.21;98880.75;5016202;28;20108;-71
2022/06/12 01:20:57;;;;;;;3.92;1.20;;;;;;;20.30;64.04;98911.28;5016972;28;20473;-72
2022/06/12 01:23:42;;;;;;;3.50;1.30;;;;;;;20.32;63.38;98916.34;5020749;28;20033;-71
2022/06/12 01:26:34;;;;;;;4.07;1.70;;;;;;;20.11;63.57;98888.28;5027899;28;20037;-71
2022/06/12 01:29:03;;;;;;;3.70;1.40;;;;;;;20.13;63.54;98895.00;5016265;28;20034;-70
2022/06/12 01:31:48;;;;;;;5.32;1.30;;;;;;;20.29;64.08;98927.31;4999711;28;20111;-70
2022/06/12 01:34:45;;;;;;;3.50;1.20;;;;;;;20.28;64.58;98933.59;5003457;28;20112;-70
2022/06/12 01:37:13;;;;;;;3.53;1.30;;;;;;;20.32;64.72;98934.84;4989533;28;20547;-71
2022/06/12 01:39:49;;;;;;;4.22;1.27;;;;;;;20.34;64.37;98940.72;5016877;28;20029;-71
2022/06/12 01:42:33;;;;;;;3.95;1.17;;;;;;;20.08;65.05;98900.06;5013669;28;20092;-72
2022/06/12 01:45:25;;;;;;;3.80;1.40;;;;;;;20.08;64.61;98900.06;4987401;28;20489;-70
2022/06/12 01:48:23;;;;;;;4.10;1.30;;;;;;;20.16;65.27;98930.72;5015898;28;20052;-70
2022/06/12 01:50:59;;;;;;;3.70;1.30;;;;;;;20.12;64.93;98934.78;4994479;28;20034;-72
2022/06/12 01:53:56;;;;;;;3.10;1.30;;;;;;;19.99;65.51;98895.97;4994900;28;20034;-70
2022/06/12 01:56:45;;;;;;;4.40;1.30;;;;;;;20.17;65.97;98937.66;5012801;28;20628;-73
2022/06/12 01:59:33;;;;;;;5.32;1.38;;;;;;;20.09;65.58;98935.16;5019657;28;20033;-70
2022/06/12 02:02:10;;;;;;;3.22;1.15;;;;;;;19.97;64.85;98934.94;5012886;28;20033;-70
2022/06/12 02:04:47;;;;;;;3.35;1.40;;;;;;;20.05;65.08;98936.59;5018599;28;20037;-70
2022/06/12 02:07:37;;;;;;;3.78;1.38;;;;;;;19.81;65.85;98885.97;5016196;28;20798;-70
2022/06/12 02:10:23;;;;;;;4.63;1.20;;;;;;;20.09;65.21;98929.88;4997423;28;20061;-72
2022/06/12 02:13:11;;;;;;;3.30;1.05;;;;;;;19.85;66.90;98925.97;5010765;28;20022;-74
2022/06/12 02:15:47;;;;;;;3.08;1.17;;;;;;;19.80;67.34;98926.53;4995647;28;20045;-71
2022/06/12 02:18:39;;;;;;;3.10;1.30;;;;;;;19.87;67.53;98916.00;5016612;28;20029;-72
2022/06/12 02:21:19;;;;;;;3.75;1.33;;;;;;;19.82;69.00;98918.44;4996372;28;20036;-70
2022/06/12 02:23:54;;;;;;;4.22;1.45;;;;;;;19.68;68.68;98893.81;5010326;28;20523;-70
2022/06/12 02:26:24;;;;;;;4.80;1.40;;;;;;;19.90;67.89;98921.72;5012578;28;20061;-71
2022/06/12 02:28:58;;;;;;;4.47;1.40;;;;;;;19.95;67.85;98921.09;5001116;28;20026;-71
2022/06/12 02:31:27;;;;;;;4.55;1.40;;;;;;;19.87;68.09;98919.47;5016027;28;20029;-69
2022/06/12 02:33:59;;;;;;;3.13;1.13;;;;;;;19.80;68.08;98920.44;4994432;28;20026;-71
2022/06/12 02:36:27;;;;;;;2.97;1.00;;;;;;;19.73;68.50;98918.63;5015047;28;20479;-71
2022/06/12 02:38:57;;;;;;;3.67;1.55;;;;;;;19.76;67.32;98922.66;5015722;28;20031;-73
2022/06/12 02:41:28;;;;;;;2.95;1.20;;;;;;;19.63;67.94;98939.22;4997404;28;20477;-73
2022/06/12 02:43:57;;;;;;;3.38;1.20;;;;;;;19.55;69.49;98923.56;5014248;28;20053;-72
2022/06/12 02:46:47;;;;;;;5.32;1.27;;;;;;;19.66;68.93;98924.81;5017811;28;20037;-71
2022/06/12 02:49:13;;;;;;;3.70;1.42;;;;;;;19.56;68.71;98904.09;5005759;28;20502;-72
2022/06/12 02:51:48;;;;;;;3.28;1.23;;;;;;;19.53;68.73;98912.38;5016346;28;20045;-70
2022/06/12 02:54:31;;;;;;;3.25;1.20;;;;;;;19.40;69.80;98921.88;5010513;28;20037;-70
2022/06/12 02:57:02;;;;;;;2.88;1.20;;;;;;;19.19;69.74;98887.66;5015181;28;20698;-72
2022/06/12 02:59:58;;;;;;;3.35;1.20;;;;;;;19.56;69.45;98928.63;5018093;28;20029;-73
2022/06/12 03:02:35;;;;;;;3.80;1.20;;;;;;;19.45;69.41;98936.28;5015498;28;20441;-73
2022/06/12 03:05:32;;;;;;;3.25;1.23;;;;;;;19.26;69.83;98941.25;5017759;28;20056;-70
2022/06/12 03:08:04;;;;;;;4.20;1.58;;;;;;;19.28;69.25;98946.31;5020976;28;20103;-71
2022/06/12 03:10:34;;;;;;;3.78;1.38;;;;;;;19.35;69.05;98934.81;5002175;28;20128;-73
2022/06/12 03:13:05;;;;;;;3.35;1.33;;;;;;;19.26;68.97;98941.25;5020702;28;20116;-70
2022/06/12 03:15:39;;;;;;;5.30;1.25;;;;;;;19.16;68.51;98938.13;5017475;28;20132;-72
2022/06/12 03:18:07;;;;;;;3.15;1.20;;;;;;;19.04;68.17;98937.84;5020448;28;20512;-70
2022/06/12 03:20:45;;;;;;;3.85;1.13;;;;;;;19.02;68.12;98931.97;5020058;28;20096;-74
2022/06/12 03:23:30;;;;;;;3.20;1.20;;;;;;;19.15;67.16;98936.50;4997056;28;20049;-70
2022/06/12 03:25:56;;;;;;;3.85;1.30;;;;;;;19.15;66.86;98945.22;5014431;28;20414;-71
2022/06/12 03:28:30;;;;;;;3.15;1.10;;;;;;;19.17;67.09;98942.41;5014329;28;20029;-71
2022/06/12 03:31:10;;;;;;;3.20;1.10;;;;;;;19.12;66.17;98944.78;5016184;28;20116;-74
2022/06/12 03:33:50;;;;;;;4.38;1.35;;;;;;;19.12;66.09;98947.41;5020485;28;20067;-71
2022/06/12 03:36:54;;;;;;;3.75;1.30;;;;;;;19.06;65.72;98946.38;5019192;28;20041;-71
2022/06/12 03:39:29;;;;;;;2.85;1.10;;;;;;;18.87;65.60;98916.22;5021598;28;20050;-72
2022/06/12 03:42:40;;;;;;;3.65;1.35;;;;;;;19.24;64.51;98952.97;5013276;28;20041;-70
2022/06/12 03:45:18;;;;;;;3.20;1.13;;;;;;;19.09;64.71;98953.88;4987976;28;20038;-71
2022/06/12 03:48:19;;;;;;;3.40;1.10;;;;;;;19.17;65.21;98959.00;5003432;28;20030;-72
2022/06/12 03:50:55;;;;;;;3.83;1.10;;;;;;;19.19;64.66;98961.47;5011768;28;20063;-70
2022/06/12 03:53:24;;;;;;;3.90;1.20;;;;;;;19.11;64.74;98962.44;5020965;28;20109;-70
2022/06/12 03:58:52;;;;;;;3.22;1.20;;;;;;;18.86;64.58;98930.41;5033976;28;20044;-69
2022/06/12 04:01:18;;;;;;;3.30;1.30;;;;;;;19.13;64.44;98965.69;5013663;28;20068;-71
2022/06/12 04:03:45;;;;;;;2.97;1.10;;;;;;;19.08;64.26;98975.97;5012503;28;20057;-70
2022/06/12 04:06:18;;;;;;;3.70;1.10;;;;;;;19.11;64.12;98980.88;5020495;28;20033;-70
2022/06/12 04:08:49;;;;;;;4.72;1.30;;;;;;;19.07;64.80;98984.88;5018910;28;20976;-70
2022/06/12 04:11:16;;;;;;;3.25;1.17;;;;;;;19.02;65.14;98990.72;5020561;28;20092;-71
2022/06/12 04:13:43;;;;;;;3.70;1.15;;;;;;;18.77;65.92;98952.59;5014889;28;20026;-69
2022/06/12 04:16:25;;;;;;;3.65;1.27;;;;;;;18.93;67.13;98993.66;5014171;28;20096;-70
2022/06/12 04:18:51;;;;;;;4.18;1.30;;;;;;;18.70;67.77;98955.16;4990226;28;20033;-73
2022/06/12 04:21:28;;;;;;;2.78;1.13;;;;;;;18.93;68.08;98998.94;5018662;28;20048;-70
2022/06/12 04:23:56;;;;;;;4.03;1.02;;;;;;;18.82;68.40;98993.19;5011877;28;21504;-70
2022/06/12 04:26:58;;;;;;;3.35;1.15;;;;;;;18.84;68.28;98993.00;5019046;28;20835;-70
2022/06/12 04:29:30;;;;;;;3.83;1.10;;;;;;;18.55;68.81;98957.84;5001382;28;20076;-71
2022/06/12 04:31:58;;;;;;;2.88;1.13;;;;;;;18.83;67.85;98983.47;5011076;28;20060;-72
2022/06/12 04:34:30;;;;;;;2.88;1.00;;;;;;;18.71;67.23;98956.78;5016557;28;20037;-75
2022/06/12 04:36:59;;;;;;;4.68;1.15;;;;;;;18.93;67.10;98983.13;5000118;28;20142;-72
2022/06/12 04:39:31;;;;;;;3.75;1.30;;;;;;;18.85;67.22;98981.44;5003515;28;20095;-67
2022/06/12 04:41:57;;;;;;;3.17;1.20;;;;;;;18.86;66.76;98977.81;5014026;28;20425;-71
2022/06/12 04:44:23;;;;;;;3.53;1.10;;;;;;;18.86;66.73;98982.28;4990351;28;20111;-74
2022/06/12 04:46:51;;;;;;;3.13;1.20;;;;;;;18.89;66.26;98989.78;5013793;28;20079;-75
2022/06/12 04:49:20;;;;;;;3.20;1.13;;;;;;;18.90;66.62;98980.91;5015603;28;20022;-72
2022/06/12 04:51:46;;;;;;;4.75;1.17;;;;;;;18.85;66.74;98972.75;5009302;28;20570;-71
2022/06/12 04:54:11;;;;;;;3.72;1.33;;;;;;;18.80;67.11;98981.16;5011569;28;20038;-69
2022/06/12 04:56:37;;;;;;;2.83;1.08;;;;;;;18.79;67.17;98979.56;4992675;28;20418;-71
2022/06/12 04:59:04;;;;;;;3.13;1.10;;;;;;;18.51;67.09;98943.44;5004046;28;21638;-74
2022/06/12 05:01:32;;;;;;;3.75;1.27;;;;;;;18.70;67.00;98970.94;5008040;28;20034;-73
2022/06/12 05:03:59;;;;;;;3.70;1.20;;;;;;;18.69;67.40;98981.66;5015511;28;20032;-73
2022/06/12 05:06:25;;;;;;;3.63;1.23;;;;;;;18.74;67.24;98987.19;4998598;28;21325;-69
2022/06/12 05:08:52;;;;;;;3.35;1.23;;;;;;;18.76;67.08;98995.72;4999352;28;20385;-75
2022/06/12 05:11:18;;;;;;;3.67;1.30;;;;;;;18.77;66.84;98997.38;5011485;28;20034;-71
2022/06/12 05:13:44;;;;;;;5.65;1.52;;;;;;;18.65;66.54;98973.31;5010813;28;20045;-71
2022/06/12 05:16:22;;;;;;;4.05;1.30;;;;;;;18.71;67.55;99006.00;4976361;28;20626;-69
2022/06/12 05:18:48;;;;;;;4.77;1.40;;;;;;;18.72;67.83;99008.44;5005066;28;20025;-71
2022/06/12 05:21:13;;;;;;;3.40;1.20;;;;;;;18.62;67.69;98995.59;4999706;28;20092;-72
2022/06/12 05:23:39;;;;;;;4.13;1.58;;;;;;;18.72;68.25;99002.38;5002767;28;20037;-70
2022/06/12 05:26:06;;;;;;;5.05;1.20;;;;;;;18.47;67.54;98952.69;4999049;28;20061;-69
2022/06/12 05:28:31;;;;;;;3.30;1.20;;;;;;;18.76;67.17;98998.34;5012128;28;20111;-73
2022/06/12 05:30:56;;;;;;;2.95;1.13;;;;;;;18.78;66.31;98993.72;5005866;28;20104;-70
2022/06/12 05:33:22;;;;;;;2.95;1.15;;;;;;;18.74;65.44;98995.91;5022191;28;20036;-69
2022/06/12 05:35:47;;;;;;;3.17;1.00;;;;;;;18.83;64.16;98988.72;5010554;28;20065;-74
2022/06/12 05:38:13;;;;;;;3.40;1.20;;;;;;;18.90;63.66;98996.69;5026944;28;20033;-71
2022/06/12 05:40:40;;;;;;;3.08;1.10;;;;;;;18.86;63.14;98985.72;5003053;28;20116;-70
2022/06/12 05:43:05;;;;;;;3.58;1.15;;;;;;;18.80;63.29;98991.69;5006682;28;20448;-70
2022/06/12 05:45:32;;;;;;;4.00;1.20;;;;;;;18.90;62.61;99000.16;5005375;28;20104;-71
2022/06/12 05:48:10;;;;;;;4.25;1.30;;;;;;;18.89;61.96;98989.78;4961786;28;20484;-72
2022/06/12 05:50:37;;;;;;;3.20;1.13;;;;;;;18.90;61.69;99000.16;5024467;28;20488;-70
2022/06/12 05:53:03;;;;;;;3.63;1.17;;;;;;;18.87;61.60;98997.06;5008831;28;20477;-71
2022/06/12 05:55:29;;;;;;;3.42;1.20;;;;;;;18.89;61.50;98998.53;5017806;28;20032;-71
2022/06/12 05:57:54;;;;;;;2.95;1.10;;;;;;;18.96;61.42;99003.84;5009814;28;21163;-71
2022/06/12 06:00:25;;;;;;;3.20;1.17;;;;;;;18.92;61.50;99005.22;5011211;28;20030;-71
2022/06/12 06:02:50;;;;;;;2.53;1.00;;;;;;;18.86;61.76;99000.72;5010030;28;20546;-71
2022/06/12 06:05:16;;;;;;;3.67;1.20;;;;;;;18.88;61.54;98999.53;5022042;28;20026;-75
2022/06/12 06:07:43;;;;;;;3.35;1.17;;;;;;;18.90;61.29;99002.78;5005659;28;20025;-71
2022/06/12 06:10:16;;;;;;;3.83;1.20;;;;;;;18.88;61.76;99007.44;5007811;28;20117;-69
2022/06/12 06:12:42;;;;;;;3.42;1.20;;;;;;;18.89;61.98;99014.34;5027510;28;20120;-74
2022/06/12 06:15:08;;;;;;;4.05;1.00;;;;;;;18.83;61.91;99005.34;5014945;28;20045;-72
2022/06/12 06:17:33;;;;;;;2.85;1.10;;;;;;;18.89;62.31;99008.22;5016968;28;20468;-71
2022/06/12 06:19:58;;;;;;;3.63;1.00;;;;;;;18.97;62.20;99011.56;5009990;28;20028;-71
2022/06/12 06:22:24;;;;;;;3.60;1.40;;;;;;;18.93;61.95;99004.22;5009510;28;20531;-70
2022/06/12 06:24:49;;;;;;;3.58;1.10;;;;;;;18.73;62.08;98970.59;5003019;28;20021;-73
2022/06/12 06:27:15;;;;;;;3.40;1.10;;;;;;;19.04;61.86;99016.91;5009084;28;20045;-70
2022/06/12 06:29:41;;;;;;;3.63;1.27;;;;;;;19.05;61.10;99009.81;5000955;28;20029;-71
2022/06/12 06:32:08;;;;;;;4.13;1.17;;;;;;;19.12;61.65;99010.66;5004310;28;20064;-70
2022/06/12 06:34:38;;;;;;;3.08;1.20;;;;;;;19.09;62.12;98997.88;5028195;28;20366;-71
2022/06/12 06:37:04;;;;;;;2.92;1.10;;;;;;;19.18;60.84;99007.25;4995132;28;20037;-70
2022/06/12 06:39:30;;;;;;;2.80;0.95;;;;;;;19.10;58.86;98973.16;5010929;28;20060;-72
2022/06/12 06:41:55;;;;;;;3.83;1.00;;;;;;;19.38;56.90;98999.50;5001236;28;20037;-69
2022/06/12 06:47:05;;;;;;;3.15;1.15;;;;;;;19.62;57.15;99000.06;5004447;28;20768;-72
2022/06/12 06:49:31;;;;;;;3.30;1.08;;;;;;;19.67;57.04;98993.19;5002801;28;20025;-70
2022/06/12 06:51:56;;;;;;;3.38;1.20;;;;;;;19.71;58.02;99010.28;5005821;28;20044;-74
2022/06/12 06:54:22;;;;;;;3.38;1.17;;;;;;;19.78;57.36;98994.50;5002156;28;20618;-70
2022/06/12 06:56:48;;;;;;;4.32;1.20;;;;;;;19.85;57.19;99008.56;5001186;28;20030;-71
2022/06/12 06:59:13;;;;;;;2.63;1.05;;;;;;;19.95;57.26;99009.03;4988948;28;20369;-69
2022/06/12 07:01:39;;;;;;;2.95;1.10;;;;;;;20.00;56.51;99011.06;5004453;28;20037;-73
2022/06/12 07:04:04;;;;;;;3.53;1.13;;;;;;;19.78;57.80;98981.31;5009162;28;20030;-68
2022/06/12 07:06:30;;;;;;;3.00;1.10;;;;;;;20.00;57.71;99002.34;5006961;28;20041;-73
2022/06/12 07:08:56;;;;;;;3.38;1.13;;;;;;;20.02;58.12;99006.41;5007579;28;20073;-71
2022/06/12 07:11:23;;;;;;;3.17;1.20;;;;;;;20.15;58.89;99011.75;5023347;28;20032;-70
2022/06/12 07:13:49;;;;;;;3.38;1.15;;;;;;;20.00;59.59;98981.22;4992292;28;20030;-73
2022/06/12 07:16:15;;;;;;;5.25;1.48;;;;;;;20.34;59.74;99014.66;4994999;28;20040;-69
2022/06/12 07:18:41;;;;;;;3.30;1.10;;;;;;;20.25;60.03;99002.66;5006782;28;20025;-72
2022/06/12 07:21:07;;;;;;;3.75;1.30;;;;;;;20.36;58.82;99002.88;5022348;28;20041;-68
2022/06/12 07:23:32;;;;;;;4.32;1.45;;;;;;;20.48;59.41;98994.38;4986806;28;20029;-68
2022/06/12 07:26:04;;;;;;;3.70;1.40;;;;;;;20.59;60.54;99003.53;5009898;28;20029;-69
2022/06/12 07:28:31;;;;;;;3.53;1.17;;;;;;;20.72;59.26;99000.97;5002754;28;20049;-66
2022/06/12 07:30:56;;;;;;;3.15;1.23;;;;;;;20.78;58.09;99007.28;4989689;28;20041;-68
2022/06/12 07:33:22;;;;;;;3.70;1.10;;;;;;;20.85;57.49;99002.81;5013678;28;20369;-70
2022/06/12 07:35:48;;;;;;;3.40;1.25;;;;;;;20.98;57.38;99007.31;5020711;28;20029;-69
2022/06/12 07:38:16;;;;;;;3.10;1.13;;;;;;;21.06;58.10;99009.75;5007857;28;20528;-70
2022/06/12 07:40:46;;;;;;;3.95;1.30;;;;;;;21.03;58.68;99012.81;4986066;28;20424;-68
2022/06/12 07:43:12;;;;;;;3.70;1.40;;;;;;;21.10;58.97;99026.81;5004623;28;20483;-66
2022/06/12 07:45:39;;;;;;;3.55;1.23;;;;;;;21.17;58.95;99025.00;5004382;28;20156;-68
2022/06/12 07:48:05;;;;;;;3.78;1.70;;;;;;;21.27;58.13;99014.81;5001425;28;20034;-69
2022/06/12 07:50:30;;;;;;;4.70;1.95;;;;;;;21.47;58.51;99011.41;5013357;28;20025;-66
2022/06/12 07:52:56;;;;;;;3.83;1.40;;;;;;;21.73;57.24;99009.72;5014455;28;20029;-67
2022/06/12 07:55:21;;;;;;;4.63;1.50;;;;;;;21.91;54.72;99006.41;5014521;28;20111;-70
2022/06/12 07:57:48;;;;;;;4.03;1.52;;;;;;;22.08;53.94;99000.41;5019197;28;20034;-67
2022/06/12 08:00:16;;;;;;;3.67;1.40;;;;;;;22.38;53.01;99004.38;5023899;28;20130;-67
2022/06/12 08:02:43;;;;;;;3.55;1.25;;;;;;;22.57;51.33;98998.19;5020701;28;20124;-68
2022/06/12 08:05:09;;;;;;;3.97;1.10;;;;;;;22.94;50.51;99005.47;4993552;28;20293;-71
2022/06/12 08:07:34;;;;;;;3.08;1.20;;;;;;;23.25;48.27;98994.03;4969169;28;20034;-68
2022/06/12 08:10:01;;;;;;;3.95;1.33;;;;;;;23.57;48.57;98991.28;5022597;28;20040;-64
2022/06/12 08:12:26;;;;;;;2.80;0.90;;;;;;;23.75;46.71;98969.25;5002443;28;20029;-66
2022/06/12 08:14:54;;;;;;;2.92;1.05;;;;;;;24.34;45.80;99004.09;5008602;28;20476;-67
2022/06/12 08:17:19;;;;;;;3.80;1.10;;;;;;;24.32;47.04;98995.56;5006825;28;20033;-65
2022/06/12 08:22:29;;;;;;;4.45;1.15;;;;;;;24.77;44.26;98987.19;5004664;28;20127;-65
2022/06/12 08:24:54;;;;;;;6.15;1.17;;;;;;;25.23;42.94;98976.81;5001246;28;20041;-64
2022/06/12 08:27:20;;;;;;;3.25;1.30;;;;;;;25.47;43.78;98985.63;5003196;28;20128;-65
2022/06/12 08:29:45;;;;;;;3.63;1.10;;;;;;;25.25;43.42;98980.09;5013475;28;20116;-61
2022/06/12 08:32:19;;;;;;;3.15;1.10;;;;;;;25.26;43.21;98981.69;4993203;28;20025;-62
2022/06/12 08:35:06;;;;;;;3.05;1.10;;;;;;;25.59;41.83;98974.97;5007914;28;20788;-65
2022/06/12 08:37:35;;;;;;;3.67;1.10;;;;;;;25.76;41.15;98967.88;5006938;28;20037;-63
2022/06/12 08:40:02;;;;;;;3.95;1.00;;;;;;;25.83;40.30;98943.75;5001420;28;20034;-64
2022/06/12 08:42:50;;;;;;;2.88;1.10;;;;;;;25.79;40.39;98947.94;5004154;28;20115;-62
2022/06/12 08:45:16;;;;;;;2.90;1.00;;;;;;;25.98;39.43;98911.34;5000222;28;20052;-62
2022/06/12 08:47:41;;;;;;;3.42;1.30;;;;;;;26.76;38.63;98967.63;5011341;28;20080;-59
2022/06/12 08:50:29;;;;;;;3.38;1.30;;;;;;;27.00;40.05;98954.94;5007149;28;20396;-63
2022/06/12 08:53:14;;;;;;;8.15;1.27;;;;;;;27.21;39.24;98959.50;4990277;28;20089;-64
2022/06/12 08:59:10;;;;;;;2.45;1.00;;;;;;;27.32;39.55;98962.38;4913969;28;20527;-63
2022/06/12 09:01:41;;;;;;;3.03;1.10;;;;;;;26.99;38.81;98959.44;5009276;28;20030;-61
2022/06/12 09:04:07;;;;;;;2.85;1.08;;;;;;;27.23;37.45;98956.59;5006191;28;20026;-61
2022/06/12 09:06:38;;;;;;;3.25;1.10;;;;;;;27.38;36.71;98956.84;5005337;28;20060;-61
2022/06/12 09:09:09;;;;;;;4.95;1.15;;;;;;;27.53;37.90;98945.56;5011333;28;20128;-61
2022/06/12 09:11:42;;;;;;;3.13;1.10;;;;;;;27.84;37.07;98950.47;5018790;28;20029;-63
2022/06/12 09:14:41;;;;;;;3.95;2.30;;;;;;;28.14;35.25;98950.84;4988719;28;20626;-63
2022/06/12 09:17:15;;;;;;;2.90;1.00;;;;;;;28.16;36.33;98948.72;5015934;28;20025;-62
2022/06/12 09:19:59;;;;;;;4.13;1.48;;;;;;;28.11;35.42;98948.69;5004017;28;20056;-61
2022/06/12 09:22:34;;;;;;;2.95;1.05;;;;;;;28.08;34.59;98948.38;5005565;28;20032;-62
2022/06/12 09:25:09;;;;;;;3.20;1.38;;;;;;;27.88;36.14;98925.69;5017931;28;20037;-61
2022/06/12 09:27:56;;;;;;;4.93;1.17;;;;;;;28.58;37.12;98946.47;5023419;28;20024;-63
2022/06/12 09:30:31;;;;;;;2.67;1.10;;;;;;;28.75;37.57;98949.84;5011882;28;20111;-61
2022/06/12 09:33:39;;;;;;;3.53;1.13;;;;;;;28.26;38.17;98949.91;5010744;28;20017;-60
2022/06/12 09:36:24;;;;;;;3.45;1.20;;;;;;;28.15;38.74;98951.66;4974158;28;20034;-63
2022/06/12 09:39:00;;;;;;;3.30;1.30;;;;;;;28.25;40.17;98949.06;4967419;28;20084;-60
2022/06/12 09:41:39;;;;;;;3.33;1.20;;;;;;;28.14;39.50;98945.47;5015874;28;20022;-61
2022/06/12 09:44:25;;;;;;;4.90;1.50;;;;;;;28.55;40.22;98911.16;5021503;28;20064;-63
2022/06/12 09:47:05;;;;;;;3.22;1.30;;;;;;;28.40;41.00;98928.88;5009038;28;20041;-64
2022/06/12 09:50:02;;;;;;;3.67;1.42;;;;;;;28.71;41.03;98921.94;5007066;28;20025;-62
2022/06/12 09:52:54;;;;;;;3.90;1.33;;;;;;;28.17;40.83;98922.81;5011371;28;20036;-62
2022/06/12 09:55:30;;;;;;;4.18;1.40;;;;;;;28.45;40.81;98916.38;5002563;28;20017;-61
2022/06/12 09:58:02;;;;;;;4.32;1.85;;;;;;;28.32;38.79;98903.44;4993395;28;20053;-61
2022/06/12 10:00:36;;;;;;;4.70;1.80;;;;;;;28.33;36.26;98905.84;4987535;28;20156;-68
2022/06/12 10:03:09;;;;;;;3.15;1.20;;;;;;;28.14;37.25;98900.03;4978415;28;20060;-62
2022/06/12 10:05:43;;;;;;;3.45;1.17;;;;;;;27.63;36.20;98883.44;5008624;28;20034;-61
2022/06/12 10:08:23;;;;;;;4.95;1.38;;;;;;;27.01;38.56;98898.66;5009026;28;20033;-63
2022/06/12 10:11:03;;;;;;;3.58;1.20;;;;;;;26.37;39.24;98847.50;4999086;28;20191;-59
2022/06/12 10:13:39;;;;;;;3.88;1.30;;;;;;;26.51;39.82;98890.66;5005089;28;20010;-62
2022/06/12 10:16:22;;;;;;;3.30;1.20;;;;;;;26.54;40.68;98877.66;5008486;28;20424;-61
2022/06/12 10:18:51;;;;;;;4.20;1.20;;;;;;;26.31;38.85;98881.28;5013662;28;20520;-61
2022/06/12 10:21:21;;;;;;;3.17;1.20;;;;;;;26.39;39.87;98869.41;5007983;28;20034;-62
2022/06/12 10:23:47;;;;;;;3.47;1.40;;;;;;;26.04;39.27;98857.09;4991486;28;20027;-64
2022/06/12 10:26:23;;;;;;;3.28;1.27;;;;;;;26.15;39.82;98869.53;5008188;28;20112;-61
2022/06/12 10:29:00;;;;;;;2.88;1.15;;;;;;;26.22;46.65;98864.06;5007410;28;20079;-61
2022/06/12 10:31:28;;;;;;;5.15;1.35;;;;;;;25.80;43.79;98830.53;5021055;28;20025;-62
2022/06/12 10:34:03;;;;;;;3.10;1.05;;;;;;;25.84;43.57;98850.31;5015326;28;20036;-61
2022/06/12 10:36:32;;;;;;;4.70;1.25;;;;;;;25.76;41.87;98826.75;5003988;28;20022;-63
2022/06/12 10:39:15;;;;;;;3.27;1.40;;;;;;;25.93;42.66;98841.97;4997983;28;20036;-61
2022/06/12 10:41:59;;;;;;;4.15;1.23;;;;;;;26.02;42.56;98841.34;5010352;28;20268;-63
2022/06/12 10:44:44;;;;;;;3.20;1.20;;;;;;;26.04;44.57;98835.78;4992121;28;20532;-61
2022/06/12 10:47:15;;;;;;;5.55;1.50;;;;;;;26.14;43.51;98835.13;5011116;28;20117;-60
2022/06/12 10:49:41;;;;;;;4.30;1.55;;;;;;;26.41;41.28;98832.66;4997026;28;20030;-63
2022/06/12 10:52:14;;;;;;;5.38;2.17;;;;;;;26.76;38.98;98832.41;5029133;28;20037;-63
2022/06/12 10:54:39;;;;;;;6.07;1.75;;;;;;;26.85;39.21;98814.13;5005855;28;20558;-63
2022/06/12 10:57:13;;;;;;;4.38;1.52;;;;;;;27.17;37.70;98830.28;4996786;28;20368;-61
2022/06/12 10:59:44;;;;;;;4.70;1.92;;;;;;;27.11;36.55;98803.81;5000659;28;20037;-62
2022/06/12 11:02:40;;;;;;;4.53;1.50;;;;;;;27.22;37.73;98816.22;5008054;28;20473;-61
2022/06/12 11:09:15;;;;;;;3.97;1.40;;;;;;;27.51;35.78;98816.00;5003604;28;20041;-62
2022/06/12 11:11:55;;;;;;;4.10;1.58;;;;;;;27.45;36.51;98790.31;4972427;28;20125;-61
2022/06/12 11:14:58;;;;;;;5.28;1.40;;;;;;;27.52;35.94;98805.09;4995751;28;20034;-65
2022/06/12 11:17:48;;;;;;;4.72;1.60;;;;;;;27.39;36.95;98790.25;5009507;28;20195;-60
2022/06/12 11:20:19;;;;;;;5.43;1.95;;;;;;;27.63;36.26;98808.66;5010395;28;20120;-60
2022/06/12 11:23:03;;;;;;;5.50;1.60;;;;;;;27.68;36.82;98806.06;5019599;28;20140;-60
2022/06/12 11:25:40;;;;;;;3.58;1.30;;;;;;;27.71;35.75;98786.03;5026664;28;20127;-62
2022/06/12 11:28:44;;;;;;;3.90;1.45;;;;;;;27.71;34.29;98786.88;4986971;28;20115;-60
2022/06/12 11:31:24;;;;;;;5.03;1.50;;;;;;;27.71;34.22;98789.53;5011706;28;20041;-63
2022/06/12 11:34:01;;;;;;;3.53;1.27;;;;;;;27.95;34.84;98784.72;5015078;28;20411;-59
2022/06/12 11:36:35;;;;;;;3.40;1.20;;;;;;;27.81;34.17;98778.13;5013319;28;20230;-62
2022/06/12 11:39:03;;;;;;;3.67;1.30;;;;;;;28.10;32.56;98773.31;4999860;28;20092;-61
2022/06/12 11:41:37;;;;;;;3.33;1.30;;;;;;;28.06;34.34;98771.44;5012715;28;20022;-61
2022/06/12 11:44:36;;;;;;;3.20;1.20;;;;;;;28.09;34.17;98774.41;5012434;28;20453;-63
2022/06/12 11:47:25;;;;;;;3.92;1.25;;;;;;;28.02;34.10;98773.81;5006723;28;20253;-63
2022/06/12 11:50:16;;;;;;;2.75;1.00;;;;;;;28.07;34.52;98747.09;5010395;28;20033;-60
2022/06/12 11:52:50;;;;;;;3.70;1.17;;;;;;;28.23;33.50;98766.75;5009533;28;20025;-61
2022/06/12 11:55:30;;;;;;;4.63;1.30;;;;;;;28.15;33.77;98764.56;5008768;28;20244;-62
2022/06/12 11:57:58;;;;;;;3.67;1.00;;;;;;;28.15;32.63;98754.66;4991988;28;20196;-61
2022/06/12 12:00:34;;;;;;;3.10;1.02;;;;;;;27.90;32.94;98733.88;5006085;28;20061;-60
2022/06/12 12:03:36;;;;;;;3.67;1.30;;;;;;;28.11;32.30;98747.41;4998617;28;20032;-64
2022/06/12 12:06:08;;;;;;;4.65;2.05;;;;;;;28.03;33.20;98747.88;5010438;28;20119;-60
2022/06/12 12:08:36;;;;;;;3.10;1.27;;;;;;;28.03;33.06;98748.69;5009523;28;20551;-63
2022/06/12 12:11:09;;;;;;;4.60;1.20;;;;;;;28.18;33.41;98732.78;5016820;28;20084;-66
2022/06/12 12:13:42;;;;;;;3.25;1.10;;;;;;;28.24;31.71;98706.88;5007134;28;20070;-65
2022/06/12 12:16:12;;;;;;;3.50;1.02;;;;;;;28.43;32.71;98730.50;5006989;28;20041;-68
2022/06/12 12:18:42;;;;;;;3.97;1.20;;;;;;;28.32;32.90;98716.28;4954048;28;20095;-63
2022/06/12 12:21:11;;;;;;;;;;;;;;;28.41;31.08;98719.28;4996632;28;20032;-65